Terminal Aerodrome Forecast
Issued by NWS Cleveland, OH

Home | Current Version | Previous Version | Graphics & Text | Print | Product List | Glossary Off
Versions: 1 2 3 4 5 6 7 8 9 10 11 12 13 14 15 16 17 18 19 20

000
FTUS41 KCLE 032331
TAFYNG
TAF
KYNG 032331Z 0400/0424 VRB04KT P6SM SCT045 OVC120
      TEMPO 0400/0402 1SM TSRA BR BKN012CB
     FM040600 18003KT 5SM BR BKN250
      TEMPO 0409/0413 2SM BR BKN003
     FM041400 18006KT P6SM SCT025
     FM041800 18008KT P6SM VCTS BKN045CB=

USA.gov is the U.S. government's official web portal to all federal, state and local government web resources and services.